sensor_id;sensor_type;location;lat;lon;timestamp;pressure;altitude;pressure_sealevel;temperature;humidity
740;BME280;354;42.694;23.336;2023-02-17T00:02:19;96228.22;;;0.71;100.00
740;BME280;354;42.694;23.336;2023-02-17T00:04:45;96243.97;;;0.79;100.00
740;BME280;354;42.694;23.336;2023-02-17T00:07:10;96233.59;;;0.79;100.00
740;BME280;354;42.694;23.336;2023-02-17T00:09:36;96228.44;;;0.79;100.00
740;BME280;354;42.694;23.336;2023-02-17T00:12:01;96223.25;;;0.79;100.00
740;BME280;354;42.694;23.336;2023-02-17T00:14:27;96220.59;;;0.69;100.00
740;BME280;354;42.694;23.336;2023-02-17T00:16:52;96195.72;;;0.78;100.00
740;BME280;354;42.694;23.336;2023-02-17T00:19:17;96204.47;;;0.87;100.00
740;BME280;354;42.694;23.336;2023-02-17T00:21:49;96224.63;;;1.04;100.00
740;BME280;354;42.694;23.336;2023-02-17T00:24:15;96222.22;;;0.91;100.00
740;BME280;354;42.694;23.336;2023-02-17T00:26:41;96209.41;;;0.90;100.00
740;BME280;354;42.694;23.336;2023-02-17T00:29:06;96212.75;;;1.01;100.00
740;BME280;354;42.694;23.336;2023-02-17T00:31:32;96203.34;;;1.00;100.00
740;BME280;354;42.694;23.336;2023-02-17T00:33:57;96198.59;;;1.05;100.00
740;BME280;354;42.694;23.336;2023-02-17T00:36:24;96193.50;;;0.94;100.00
740;BME280;354;42.694;23.336;2023-02-17T00:38:52;96181.59;;;0.92;100.00
740;BME280;354;42.694;23.336;2023-02-17T00:41:18;96197.28;;;0.90;100.00
740;BME280;354;42.694;23.336;2023-02-17T00:43:44;96194.69;;;0.90;100.00
740;BME280;354;42.694;23.336;2023-02-17T00:46:10;96207.63;;;0.90;100.00
740;BME280;354;42.694;23.336;2023-02-17T00:48:35;96196.31;;;0.91;100.00
740;BME280;354;42.694;23.336;2023-02-17T00:51:01;96205.66;;;1.03;100.00
740;BME280;354;42.694;23.336;2023-02-17T00:53:26;96208.28;;;1.34;100.00
740;BME280;354;42.694;23.336;2023-02-17T00:55:52;96185.56;;;1.17;100.00
740;BME280;354;42.694;23.336;2023-02-17T00:58:17;96197.63;;;1.27;100.00
740;BME280;354;42.694;23.336;2023-02-17T01:00:43;96194.78;;;1.10;100.00
740;BME280;354;42.694;23.336;2023-02-17T01:03:08;96182.34;;;1.03;100.00
740;BME280;354;42.694;23.336;2023-02-17T01:05:42;96187.81;;;1.00;100.00
740;BME280;354;42.694;23.336;2023-02-17T01:08:08;96191.72;;;0.95;100.00
740;BME280;354;42.694;23.336;2023-02-17T01:10:38;96181.38;;;0.74;100.00
740;BME280;354;42.694;23.336;2023-02-17T01:13:05;96184.97;;;0.62;100.00
740;BME280;354;42.694;23.336;2023-02-17T01:15:31;96180.63;;;0.62;100.00
740;BME280;354;42.694;23.336;2023-02-17T01:18:00;96177.06;;;0.63;100.00
740;BME280;354;42.694;23.336;2023-02-17T01:20:26;96188.94;;;0.66;100.00
740;BME280;354;42.694;23.336;2023-02-17T01:22:52;96176.75;;;0.57;100.00
740;BME280;354;42.694;23.336;2023-02-17T01:25:17;96174.88;;;0.59;100.00
740;BME280;354;42.694;23.336;2023-02-17T01:27:42;96189.50;;;0.48;100.00
740;BME280;354;42.694;23.336;2023-02-17T01:30:08;96182.63;;;0.59;100.00
740;BME280;354;42.694;23.336;2023-02-17T01:32:35;96168.28;;;0.55;100.00
740;BME280;354;42.694;23.336;2023-02-17T01:35:01;96168.25;;;0.45;100.00
740;BME280;354;42.694;23.336;2023-02-17T01:37:26;96179.16;;;0.48;100.00
740;BME280;354;42.694;23.336;2023-02-17T01:39:51;96179.91;;;0.39;100.00
740;BME280;354;42.694;23.336;2023-02-17T01:42:18;96180.78;;;0.49;100.00
740;BME280;354;42.694;23.336;2023-02-17T01:47:41;96180.69;;;0.72;100.00
740;BME280;354;42.694;23.336;2023-02-17T01:50:08;96177.91;;;0.64;100.00
740;BME280;354;42.694;23.336;2023-02-17T01:52:34;96174.25;;;0.45;100.00
740;BME280;354;42.694;23.336;2023-02-17T01:55:04;96187.53;;;0.41;100.00
740;BME280;354;42.694;23.336;2023-02-17T01:57:34;96195.59;;;0.26;100.00
740;BME280;354;42.694;23.336;2023-02-17T02:00:03;96181.06;;;0.14;100.00
740;BME280;354;42.694;23.336;2023-02-17T02:02:28;96175.59;;;-0.04;100.00
740;BME280;354;42.694;23.336;2023-02-17T02:04:55;96188.78;;;-0.07;100.00
740;BME280;354;42.694;23.336;2023-02-17T02:07:29;96184.34;;;-0.16;100.00
740;BME280;354;42.694;23.336;2023-02-17T02:09:57;96179.44;;;-0.30;100.00
740;BME280;354;42.694;23.336;2023-02-17T02:12:25;96174.38;;;-0.32;100.00
740;BME280;354;42.694;23.336;2023-02-17T02:14:52;96167.09;;;-0.27;100.00
740;BME280;354;42.694;23.336;2023-02-17T02:30:44;96171.00;;;-0.32;100.00
740;BME280;354;42.694;23.336;2023-02-17T02:33:26;96142.13;;;-0.48;100.00
740;BME280;354;42.694;23.336;2023-02-17T02:36:03;96171.09;;;-0.34;100.00
740;BME280;354;42.694;23.336;2023-02-17T02:38:37;96174.25;;;-0.30;100.00
740;BME280;354;42.694;23.336;2023-02-17T02:41:10;96162.50;;;-0.23;100.00
740;BME280;354;42.694;23.336;2023-02-17T02:43:38;96157.66;;;-0.16;100.00
740;BME280;354;42.694;23.336;2023-02-17T02:46:03;96176.78;;;-0.08;100.00
740;BME280;354;42.694;23.336;2023-02-17T02:48:29;96128.69;;;-0.31;100.00
740;BME280;354;42.694;23.336;2023-02-17T02:59:07;96175.19;;;-0.20;100.00
740;BME280;354;42.694;23.336;2023-02-17T03:01:44;96181.41;;;-0.22;100.00
740;BME280;354;42.694;23.336;2023-02-17T03:04:29;96188.13;;;-0.20;100.00
740;BME280;354;42.694;23.336;2023-02-17T03:07:23;96183.84;;;-0.10;100.00
740;BME280;354;42.694;23.336;2023-02-17T03:09:53;96184.94;;;-0.23;100.00
740;BME280;354;42.694;23.336;2023-02-17T03:12:21;96190.47;;;-0.28;100.00
740;BME280;354;42.694;23.336;2023-02-17T03:14:57;96181.88;;;-0.17;100.00
740;BME280;354;42.694;23.336;2023-02-17T03:17:24;96182.22;;;-0.11;100.00
740;BME280;354;42.694;23.336;2023-02-17T03:19:49;96155.34;;;-0.31;100.00
740;BME280;354;42.694;23.336;2023-02-17T03:22:25;96184.81;;;-0.11;100.00
740;BME280;354;42.694;23.336;2023-02-17T03:24:52;96175.59;;;-0.04;100.00
740;BME280;354;42.694;23.336;2023-02-17T03:27:18;96183.59;;;-0.07;100.00
740;BME280;354;42.694;23.336;2023-02-17T03:29:43;96177.25;;;-0.03;100.00
740;BME280;354;42.694;23.336;2023-02-17T03:32:09;96172.44;;;-0.07;100.00
740;BME280;354;42.694;23.336;2023-02-17T03:34:34;96167.03;;;-0.04;100.00
740;BME280;354;42.694;23.336;2023-02-17T03:37:00;96157.63;;;-0.05;100.00
740;BME280;354;42.694;23.336;2023-02-17T03:39:25;96190.63;;;0.03;100.00
740;BME280;354;42.694;23.336;2023-02-17T03:41:52;96188.19;;;0.01;100.00
740;BME280;354;42.694;23.336;2023-02-17T03:44:18;96172.16;;;0.07;100.00
740;BME280;354;42.694;23.336;2023-02-17T03:46:44;96154.47;;;-0.09;100.00
740;BME280;354;42.694;23.336;2023-02-17T03:49:09;96174.16;;;0.04;100.00
740;BME280;354;42.694;23.336;2023-02-17T03:51:35;96161.88;;;-0.04;100.00
740;BME280;354;42.694;23.336;2023-02-17T03:54:00;96165.00;;;-0.01;100.00
740;BME280;354;42.694;23.336;2023-02-17T03:56:26;96161.38;;;0.02;100.00
740;BME280;354;42.694;23.336;2023-02-17T03:58:51;96164.03;;;0.12;100.00
740;BME280;354;42.694;23.336;2023-02-17T04:01:16;96166.63;;;0.12;100.00
740;BME280;354;42.694;23.336;2023-02-17T04:03:42;96166.41;;;0.04;100.00
740;BME280;354;42.694;23.336;2023-02-17T04:06:08;96156.09;;;-0.08;100.00
740;BME280;354;42.694;23.336;2023-02-17T04:08:34;96178.88;;;-0.02;100.00
740;BME280;354;42.694;23.336;2023-02-17T04:11:00;96182.72;;;0.15;100.00
740;BME280;354;42.694;23.336;2023-02-17T04:13:26;96167.59;;;-0.01;100.00
740;BME280;354;42.694;23.336;2023-02-17T04:15:53;96165.84;;;0.00;100.00
740;BME280;354;42.694;23.336;2023-02-17T04:18:19;96165.72;;;0.02;100.00
740;BME280;354;42.694;23.336;2023-02-17T04:20:47;96162.41;;;-0.01;100.00
740;BME280;354;42.694;23.336;2023-02-17T04:23:13;96171.38;;;-0.05;100.00
740;BME280;354;42.694;23.336;2023-02-17T04:25:41;96177.47;;;-0.06;100.00
740;BME280;354;42.694;23.336;2023-02-17T04:28:07;96171.63;;;-0.08;100.00
740;BME280;354;42.694;23.336;2023-02-17T04:30:33;96172.69;;;-0.10;100.00
740;BME280;354;42.694;23.336;2023-02-17T04:32:59;96185.72;;;-0.12;100.00
740;BME280;354;42.694;23.336;2023-02-17T04:35:25;96186.31;;;-0.08;100.00
740;BME280;354;42.694;23.336;2023-02-17T04:37:50;96192.06;;;-0.05;100.00
740;BME280;354;42.694;23.336;2023-02-17T04:40:16;96173.81;;;0.08;100.00
740;BME280;354;42.694;23.336;2023-02-17T04:42:42;96176.03;;;0.13;100.00
740;BME280;354;42.694;23.336;2023-02-17T04:45:08;96177.28;;;0.18;100.00
740;BME280;354;42.694;23.336;2023-02-17T04:47:34;96159.22;;;0.07;100.00
740;BME280;354;42.694;23.336;2023-02-17T04:49:59;96178.81;;;0.21;100.00
740;BME280;354;42.694;23.336;2023-02-17T04:52:25;96182.22;;;0.21;100.00
740;BME280;354;42.694;23.336;2023-02-17T04:54:50;96173.88;;;0.18;100.00
740;BME280;354;42.694;23.336;2023-02-17T04:57:16;96170.53;;;0.27;100.00
740;BME280;354;42.694;23.336;2023-02-17T04:59:41;96171.44;;;0.37;100.00
740;BME280;354;42.694;23.336;2023-02-17T05:02:07;96175.88;;;0.46;100.00
740;BME280;354;42.694;23.336;2023-02-17T05:04:32;96185.72;;;0.52;100.00
740;BME280;354;42.694;23.336;2023-02-17T05:06:58;96189.00;;;0.55;100.00
740;BME280;354;42.694;23.336;2023-02-17T05:09:23;96177.97;;;0.52;100.00
740;BME280;354;42.694;23.336;2023-02-17T05:11:49;96200.06;;;0.57;100.00
740;BME280;354;42.694;23.336;2023-02-17T05:14:14;96186.91;;;0.48;100.00
740;BME280;354;42.694;23.336;2023-02-17T05:16:39;96175.13;;;0.56;100.00
740;BME280;354;42.694;23.336;2023-02-17T05:19:05;96173.78;;;0.82;100.00
740;BME280;354;42.694;23.336;2023-02-17T05:21:30;96185.66;;;0.85;100.00
740;BME280;354;42.694;23.336;2023-02-17T05:23:57;96199.94;;;1.00;100.00
740;BME280;354;42.694;23.336;2023-02-17T05:26:23;96188.69;;;0.90;100.00
740;BME280;354;42.694;23.336;2023-02-17T05:28:48;96201.72;;;0.99;100.00
740;BME280;354;42.694;23.336;2023-02-17T05:31:14;96208.03;;;0.86;100.00
740;BME280;354;42.694;23.336;2023-02-17T05:33:39;96204.59;;;0.85;100.00
740;BME280;354;42.694;23.336;2023-02-17T05:36:06;96206.81;;;0.90;100.00
740;BME280;354;42.694;23.336;2023-02-17T05:38:33;96211.13;;;1.00;100.00
740;BME280;354;42.694;23.336;2023-02-17T05:40:58;96224.75;;;1.02;100.00
740;BME280;354;42.694;23.336;2023-02-17T05:43:24;96219.41;;;0.94;100.00
740;BME280;354;42.694;23.336;2023-02-17T05:45:49;96221.47;;;1.00;100.00
740;BME280;354;42.694;23.336;2023-02-17T05:48:15;96228.88;;;1.05;100.00
740;BME280;354;42.694;23.336;2023-02-17T05:50:40;96223.19;;;1.21;100.00
740;BME280;354;42.694;23.336;2023-02-17T05:53:06;96220.38;;;1.24;100.00
740;BME280;354;42.694;23.336;2023-02-17T05:55:31;96198.09;;;1.12;100.00
740;BME280;354;42.694;23.336;2023-02-17T05:57:57;96226.03;;;1.39;100.00
740;BME280;354;42.694;23.336;2023-02-17T06:00:22;96224.75;;;1.54;100.00
740;BME280;354;42.694;23.336;2023-02-17T06:02:48;96232.44;;;1.65;100.00
740;BME280;354;42.694;23.336;2023-02-17T06:05:14;96231.56;;;1.55;100.00
740;BME280;354;42.694;23.336;2023-02-17T06:07:39;96229.41;;;1.70;100.00
740;BME280;354;42.694;23.336;2023-02-17T06:10:05;96221.53;;;1.81;100.00
740;BME280;354;42.694;23.336;2023-02-17T06:12:31;96236.75;;;1.95;100.00
740;BME280;354;42.694;23.336;2023-02-17T06:14:56;96243.94;;;1.92;100.00
740;BME280;354;42.694;23.336;2023-02-17T06:17:21;96215.84;;;1.97;100.00
740;BME280;354;42.694;23.336;2023-02-17T06:19:47;96222.97;;;2.14;100.00
740;BME280;354;42.694;23.336;2023-02-17T06:22:12;96218.47;;;2.06;100.00
740;BME280;354;42.694;23.336;2023-02-17T06:24:38;96242.56;;;2.37;100.00
740;BME280;354;42.694;23.336;2023-02-17T06:27:04;96229.03;;;2.44;100.00
740;BME280;354;42.694;23.336;2023-02-17T06:29:30;96230.91;;;2.22;100.00
740;BME280;354;42.694;23.336;2023-02-17T06:31:55;96254.44;;;2.50;100.00
740;BME280;354;42.694;23.336;2023-02-17T06:34:20;96249.53;;;2.56;100.00
740;BME280;354;42.694;23.336;2023-02-17T06:36:46;96222.88;;;2.64;100.00
740;BME280;354;42.694;23.336;2023-02-17T06:39:11;96242.72;;;2.75;100.00
740;BME280;354;42.694;23.336;2023-02-17T06:41:37;96243.38;;;2.77;100.00
740;BME280;354;42.694;23.336;2023-02-17T06:44:02;96253.75;;;2.96;100.00
740;BME280;354;42.694;23.336;2023-02-17T06:46:27;96224.75;;;2.91;100.00
740;BME280;354;42.694;23.336;2023-02-17T06:48:53;96254.53;;;3.16;100.00
740;BME280;354;42.694;23.336;2023-02-17T06:51:18;96243.03;;;3.18;100.00
740;BME280;354;42.694;23.336;2023-02-17T06:53:44;96246.47;;;3.19;100.00
740;BME280;354;42.694;23.336;2023-02-17T06:56:09;96231.16;;;3.06;100.00
740;BME280;354;42.694;23.336;2023-02-17T06:58:36;96256.16;;;3.17;100.00
740;BME280;354;42.694;23.336;2023-02-17T07:01:01;96261.53;;;2.96;100.00
740;BME280;354;42.694;23.336;2023-02-17T07:03:27;96250.88;;;3.09;100.00
740;BME280;354;42.694;23.336;2023-02-17T07:05:56;96256.16;;;3.27;100.00
740;BME280;354;42.694;23.336;2023-02-17T07:08:21;96231.28;;;3.14;100.00
740;BME280;354;42.694;23.336;2023-02-17T07:10:47;96250.13;;;3.36;100.00
740;BME280;354;42.694;23.336;2023-02-17T07:13:12;96251.19;;;3.43;100.00
740;BME280;354;42.694;23.336;2023-02-17T07:15:37;96260.19;;;3.58;100.00
740;BME280;354;42.694;23.336;2023-02-17T07:18:03;96263.03;;;3.65;100.00
740;BME280;354;42.694;23.336;2023-02-17T07:20:29;96249.41;;;3.81;100.00
740;BME280;354;42.694;23.336;2023-02-17T07:22:56;96241.59;;;3.81;100.00
740;BME280;354;42.694;23.336;2023-02-17T07:25:22;96256.34;;;3.90;100.00
740;BME280;354;42.694;23.336;2023-02-17T07:27:47;96253.47;;;3.93;100.00
740;BME280;354;42.694;23.336;2023-02-17T07:30:13;96250.78;;;4.12;100.00
740;BME280;354;42.694;23.336;2023-02-17T07:32:38;96241.84;;;4.15;100.00
740;BME280;354;42.694;23.336;2023-02-17T07:35:04;96259.38;;;4.40;100.00
740;BME280;354;42.694;23.336;2023-02-17T07:37:29;96252.38;;;4.41;100.00
740;BME280;354;42.694;23.336;2023-02-17T07:39:54;96269.13;;;4.56;100.00
740;BME280;354;42.694;23.336;2023-02-17T07:42:21;96277.78;;;4.74;100.00
740;BME280;354;42.694;23.336;2023-02-17T07:44:47;96262.78;;;4.76;100.00
740;BME280;354;42.694;23.336;2023-02-17T07:47:12;96266.97;;;4.87;100.00
740;BME280;354;42.694;23.336;2023-02-17T07:49:38;96267.09;;;5.03;100.00
740;BME280;354;42.694;23.336;2023-02-17T07:52:03;96275.72;;;5.22;100.00
740;BME280;354;42.694;23.336;2023-02-17T07:54:29;96259.59;;;5.26;100.00
740;BME280;354;42.694;23.336;2023-02-17T07:56:54;96260.28;;;5.28;100.00
740;BME280;354;42.694;23.336;2023-02-17T07:59:20;96257.47;;;5.48;100.00
740;BME280;354;42.694;23.336;2023-02-17T08:01:45;96247.69;;;5.50;100.00
740;BME280;354;42.694;23.336;2023-02-17T08:04:11;96263.75;;;5.63;100.00
740;BME280;354;42.694;23.336;2023-02-17T08:06:37;96259.75;;;5.77;100.00
740;BME280;354;42.694;23.336;2023-02-17T08:09:06;96262.69;;;5.82;100.00
740;BME280;354;42.694;23.336;2023-02-17T08:11:50;96236.25;;;5.77;100.00
740;BME280;354;42.694;23.336;2023-02-17T08:14:34;96255.19;;;6.05;100.00
740;BME280;354;42.694;23.336;2023-02-17T08:17:00;96257.81;;;6.13;100.00
740;BME280;354;42.694;23.336;2023-02-17T08:19:25;96242.19;;;6.21;100.00
740;BME280;354;42.694;23.336;2023-02-17T08:21:52;96240.56;;;6.28;100.00
740;BME280;354;42.694;23.336;2023-02-17T08:24:17;96250.22;;;6.52;100.00
740;BME280;354;42.694;23.336;2023-02-17T08:26:47;96256.47;;;6.59;100.00
740;BME280;354;42.694;23.336;2023-02-17T08:29:13;96248.81;;;6.66;100.00
740;BME280;354;42.694;23.336;2023-02-17T08:31:39;96226.56;;;6.70;100.00
740;BME280;354;42.694;23.336;2023-02-17T08:34:07;96254.38;;;6.88;100.00
740;BME280;354;42.694;23.336;2023-02-17T08:36:32;96238.69;;;6.88;100.00
740;BME280;354;42.694;23.336;2023-02-17T08:38:58;96248.34;;;7.03;99.94
740;BME280;354;42.694;23.336;2023-02-17T08:41:33;96256.81;;;7.22;97.59
740;BME280;354;42.694;23.336;2023-02-17T08:44:00;96238.66;;;7.36;94.89
740;BME280;354;42.694;23.336;2023-02-17T08:46:27;96242.06;;;7.53;94.30
740;BME280;354;42.694;23.336;2023-02-17T08:48:53;96245.09;;;7.73;94.65
740;BME280;354;42.694;23.336;2023-02-17T08:51:20;96235.56;;;7.88;91.51
740;BME280;354;42.694;23.336;2023-02-17T08:53:54;96240.69;;;8.13;91.21
740;BME280;354;42.694;23.336;2023-02-17T08:56:21;96240.47;;;8.31;87.63
740;BME280;354;42.694;23.336;2023-02-17T08:58:47;96241.53;;;8.53;86.14
740;BME280;354;42.694;23.336;2023-02-17T09:01:13;96245.88;;;8.68;84.58
740;BME280;354;42.694;23.336;2023-02-17T09:03:39;96247.81;;;8.89;82.62
740;BME280;354;42.694;23.336;2023-02-17T09:06:06;96241.72;;;8.97;81.96
740;BME280;354;42.694;23.336;2023-02-17T09:08:31;96216.72;;;8.86;80.99
740;BME280;354;42.694;23.336;2023-02-17T09:10:57;96225.56;;;9.08;80.52
740;BME280;354;42.694;23.336;2023-02-17T09:13:22;96192.69;;;8.97;79.65
740;BME280;354;42.694;23.336;2023-02-17T09:15:48;96230.41;;;9.34;77.33
740;BME280;354;42.694;23.336;2023-02-17T09:18:14;96220.34;;;9.38;74.21
740;BME280;354;42.694;23.336;2023-02-17T09:20:40;96209.16;;;9.59;74.33
740;BME280;354;42.694;23.336;2023-02-17T09:23:06;96227.47;;;9.96;64.62
740;BME280;354;42.694;23.336;2023-02-17T09:25:32;96233.63;;;10.33;60.56
740;BME280;354;42.694;23.336;2023-02-17T09:27:58;96227.13;;;10.50;57.03
740;BME280;354;42.694;23.336;2023-02-17T09:30:24;96234.84;;;10.73;54.81
740;BME280;354;42.694;23.336;2023-02-17T09:32:49;96214.88;;;10.79;53.73
740;BME280;354;42.694;23.336;2023-02-17T09:35:16;96212.28;;;10.86;53.06
740;BME280;354;42.694;23.336;2023-02-17T09:37:42;96228.13;;;11.14;52.75
740;BME280;354;42.694;23.336;2023-02-17T09:40:14;96203.88;;;11.18;51.63
740;BME280;354;42.694;23.336;2023-02-17T09:42:40;96219.84;;;11.38;49.69
740;BME280;354;42.694;23.336;2023-02-17T09:45:09;96213.50;;;11.32;49.78
740;BME280;354;42.694;23.336;2023-02-17T09:47:45;96210.59;;;11.49;48.76
740;BME280;354;42.694;23.336;2023-02-17T09:50:17;96218.94;;;11.59;48.79
740;BME280;354;42.694;23.336;2023-02-17T09:53:00;96226.47;;;11.62;48.53
740;BME280;354;42.694;23.336;2023-02-17T09:55:41;96202.94;;;11.54;47.94
740;BME280;354;42.694;23.336;2023-02-17T09:58:14;96228.78;;;11.72;48.23
740;BME280;354;42.694;23.336;2023-02-17T10:00:59;96229.38;;;11.74;48.06
740;BME280;354;42.694;23.336;2023-02-17T10:03:49;96207.78;;;11.85;47.73
740;BME280;354;42.694;23.336;2023-02-17T10:06:22;96215.09;;;11.83;46.99
740;BME280;354;42.694;23.336;2023-02-17T10:09:15;96213.59;;;11.80;47.49
740;BME280;354;42.694;23.336;2023-02-17T10:14:33;96211.72;;;12.02;47.94
740;BME280;354;42.694;23.336;2023-02-17T10:17:11;96199.16;;;11.98;47.92
740;BME280;354;42.694;23.336;2023-02-17T10:19:46;96200.00;;;12.05;47.16
740;BME280;354;42.694;23.336;2023-02-17T10:22:17;96188.59;;;11.98;45.96
740;BME280;354;42.694;23.336;2023-02-17T10:24:42;96186.84;;;12.18;44.84
740;BME280;354;42.694;23.336;2023-02-17T10:32:33;96163.69;;;12.07;44.77
740;BME280;354;42.694;23.336;2023-02-17T10:35:11;96172.50;;;12.34;44.43
740;BME280;354;42.694;23.336;2023-02-17T10:37:45;96171.91;;;12.45;44.40
740;BME280;354;42.694;23.336;2023-02-17T10:40:23;96175.34;;;12.39;43.81
740;BME280;354;42.694;23.336;2023-02-17T10:42:51;96169.47;;;12.44;43.64
740;BME280;354;42.694;23.336;2023-02-17T10:45:32;96162.00;;;12.54;44.04
740;BME280;354;42.694;23.336;2023-02-17T10:48:06;96140.84;;;12.40;43.40
740;BME280;354;42.694;23.336;2023-02-17T10:50:33;96169.91;;;12.54;43.89
740;BME280;354;42.694;23.336;2023-02-17T10:53:00;96146.56;;;12.57;43.97
740;BME280;354;42.694;23.336;2023-02-17T11:01:10;96155.91;;;12.80;42.82
740;BME280;354;42.694;23.336;2023-02-17T11:03:37;96139.91;;;12.81;42.46
740;BME280;354;42.694;23.336;2023-02-17T11:06:14;96140.50;;;12.90;43.12
740;BME280;354;42.694;23.336;2023-02-17T11:08:48;96143.97;;;13.04;42.57
740;BME280;354;42.694;23.336;2023-02-17T11:11:29;96120.19;;;12.84;42.22
740;BME280;354;42.694;23.336;2023-02-17T11:14:17;96149.47;;;13.09;42.31
740;BME280;354;42.694;23.336;2023-02-17T11:16:45;96147.03;;;13.14;42.70
740;BME280;354;42.694;23.336;2023-02-17T11:19:40;96140.09;;;12.93;40.00
740;BME280;354;42.694;23.336;2023-02-17T11:22:30;96148.22;;;12.85;39.27
740;BME280;354;42.694;23.336;2023-02-17T11:24:58;96132.56;;;12.90;39.46
740;BME280;354;42.694;23.336;2023-02-17T11:27:24;96138.06;;;12.95;39.90
740;BME280;354;42.694;23.336;2023-02-17T11:29:50;96138.47;;;12.85;40.03
740;BME280;354;42.694;23.336;2023-02-17T11:32:16;96112.47;;;12.82;40.13
740;BME280;354;42.694;23.336;2023-02-17T11:34:42;96121.81;;;12.85;40.12
740;BME280;354;42.694;23.336;2023-02-17T11:39:48;96128.94;;;13.04;41.00
740;BME280;354;42.694;23.336;2023-02-17T11:42:29;96123.63;;;13.11;40.96
740;BME280;354;42.694;23.336;2023-02-17T11:44:57;96108.81;;;13.03;41.02
740;BME280;354;42.694;23.336;2023-02-17T12:01:01;96108.81;;;13.03;41.47
740;BME280;354;42.694;23.336;2023-02-17T12:06:35;96095.81;;;13.02;41.12
740;BME280;354;42.694;23.336;2023-02-17T12:14:48;96091.31;;;13.15;41.13
740;BME280;354;42.694;23.336;2023-02-17T12:25:27;96076.50;;;13.14;41.32
740;BME280;354;42.694;23.336;2023-02-17T12:28:09;96060.28;;;12.98;40.94
740;BME280;354;42.694;23.336;2023-02-17T12:30:52;96078.34;;;13.14;41.20
740;BME280;354;42.694;23.336;2023-02-17T12:36:10;96065.94;;;13.08;40.63
740;BME280;354;42.694;23.336;2023-02-17T12:38:54;96050.28;;;13.06;40.40
740;BME280;354;42.694;23.336;2023-02-17T12:41:28;96056.19;;;13.15;40.35
740;BME280;354;42.694;23.336;2023-02-17T12:44:17;96052.31;;;13.17;40.25
740;BME280;354;42.694;23.336;2023-02-17T12:46:46;96039.72;;;13.26;41.02
740;BME280;354;42.694;23.336;2023-02-17T12:49:17;96047.88;;;13.25;40.36
740;BME280;354;42.694;23.336;2023-02-17T12:51:48;96051.06;;;13.33;40.66
740;BME280;354;42.694;23.336;2023-02-17T12:54:35;96050.84;;;13.35;40.35
740;BME280;354;42.694;23.336;2023-02-17T12:57:24;96049.69;;;13.31;40.70
740;BME280;354;42.694;23.336;2023-02-17T12:59:52;96034.41;;;13.33;41.07
740;BME280;354;42.694;23.336;2023-02-17T13:02:20;96042.34;;;13.33;40.77
740;BME280;354;42.694;23.336;2023-02-17T13:04:54;96032.38;;;13.41;40.50
740;BME280;354;42.694;23.336;2023-02-17T13:09:48;96042.69;;;13.50;40.42
740;BME280;354;42.694;23.336;2023-02-17T13:14:52;96035.97;;;13.54;40.74
740;BME280;354;42.694;23.336;2023-02-17T13:17:23;96010.59;;;13.46;40.13
740;BME280;354;42.694;23.336;2023-02-17T13:22:33;96025.16;;;13.68;40.28
740;BME280;354;42.694;23.336;2023-02-17T13:24:59;96033.41;;;13.79;39.75
740;BME280;354;42.694;23.336;2023-02-17T13:32:37;96019.94;;;13.87;39.37
740;BME280;354;42.694;23.336;2023-02-17T13:35:10;96024.44;;;13.86;39.28
740;BME280;354;42.694;23.336;2023-02-17T13:37:44;96022.38;;;13.88;39.62
740;BME280;354;42.694;23.336;2023-02-17T13:42:44;96030.50;;;13.93;39.82
740;BME280;354;42.694;23.336;2023-02-17T13:45:24;96020.53;;;13.89;38.93
740;BME280;354;42.694;23.336;2023-02-17T13:47:53;96016.09;;;13.83;39.17
740;BME280;354;42.694;23.336;2023-02-17T13:50:30;96017.13;;;13.82;38.78
740;BME280;354;42.694;23.336;2023-02-17T13:52:56;96016.53;;;13.80;38.55
740;BME280;354;42.694;23.336;2023-02-17T13:55:22;96005.00;;;13.67;38.87
740;BME280;354;42.694;23.336;2023-02-17T13:58:09;96003.59;;;13.65;38.90
740;BME280;354;42.694;23.336;2023-02-17T14:00:35;96016.59;;;13.66;38.59
740;BME280;354;42.694;23.336;2023-02-17T14:03:20;96031.19;;;13.76;38.34
740;BME280;354;42.694;23.336;2023-02-17T14:05:47;96023.28;;;13.76;38.57
740;BME280;354;42.694;23.336;2023-02-17T14:10:39;96015.56;;;13.67;38.81
740;BME280;354;42.694;23.336;2023-02-17T14:13:09;96019.91;;;13.55;39.08
740;BME280;354;42.694;23.336;2023-02-17T14:15:35;96017.69;;;13.52;39.51
740;BME280;354;42.694;23.336;2023-02-17T14:18:11;96019.31;;;13.53;39.84
740;BME280;354;42.694;23.336;2023-02-17T14:20:37;96014.88;;;13.47;39.96
740;BME280;354;42.694;23.336;2023-02-17T14:23:05;96025.63;;;13.45;40.46
740;BME280;354;42.694;23.336;2023-02-17T14:25:33;96019.00;;;13.30;40.53
740;BME280;354;42.694;23.336;2023-02-17T14:27:59;96008.84;;;13.13;41.36
740;BME280;354;42.694;23.336;2023-02-17T14:30:33;96026.31;;;13.14;40.86
740;BME280;354;42.694;23.336;2023-02-17T14:35:26;96022.88;;;13.14;41.16
740;BME280;354;42.694;23.336;2023-02-17T14:37:51;96020.22;;;13.14;41.25
740;BME280;354;42.694;23.336;2023-02-17T14:40:22;96022.66;;;13.15;41.57
740;BME280;354;42.694;23.336;2023-02-17T14:42:49;96023.06;;;13.12;41.87
740;BME280;354;42.694;23.336;2023-02-17T14:45:15;96008.06;;;13.00;41.89
740;BME280;354;42.694;23.336;2023-02-17T14:47:42;96007.44;;;12.91;42.38
740;BME280;354;42.694;23.336;2023-02-17T14:50:08;95993.47;;;12.84;42.22
740;BME280;354;42.694;23.336;2023-02-17T14:52:39;96016.00;;;12.93;42.17
740;BME280;354;42.694;23.336;2023-02-17T14:55:15;96019.44;;;13.00;42.65
740;BME280;354;42.694;23.336;2023-02-17T14:57:42;96004.22;;;12.89;42.21
740;BME280;354;42.694;23.336;2023-02-17T15:00:11;96001.56;;;12.89;42.56
740;BME280;354;42.694;23.336;2023-02-17T15:02:40;96014.56;;;12.97;42.39
740;BME280;354;42.694;23.336;2023-02-17T15:05:05;96011.53;;;12.93;42.30
740;BME280;354;42.694;23.336;2023-02-17T15:07:31;96016.00;;;12.80;42.77
740;BME280;354;42.694;23.336;2023-02-17T15:09:57;95992.66;;;12.63;43.01
740;BME280;354;42.694;23.336;2023-02-17T15:12:22;96023.75;;;12.75;42.97
740;BME280;354;42.694;23.336;2023-02-17T15:14:48;96015.81;;;12.68;42.88